Time;durP1;ratioP1;P1;durP2;ratioP2;P2;SDS_P1;SDS_P2;PMS_P1;PMS_P2;Temp;Humidity;BMP_temperature;BMP_pressure;BME280_temperature;BME280_humidity;BME280_pressure;Samples;Min_cycle;Max_cycle;Signal;HPM_P1;HPM_P2
2021/05/01 00:00:21;;;;;;;6.00;5.40;;;;;;;19.50;53.59;99164.75;2061570;28;20030;-66
2021/05/01 00:01:21;;;;;;;6.20;5.07;;;;;;;19.49;53.48;99157.53;2062119;28;20026;-66
2021/05/01 00:02:22;;;;;;;8.60;5.83;;;;;;;19.49;53.62;99163.84;2060330;28;20177;-66
2021/05/01 00:03:22;;;;;;;6.10;5.10;;;;;;;19.49;53.68;99168.47;2061904;28;20033;-66
2021/05/01 00:04:23;;;;;;;6.63;5.90;;;;;;;19.50;53.63;99172.94;2061657;28;20113;-66
2021/05/01 00:05:23;;;;;;;8.83;6.30;;;;;;;19.50;53.59;99170.22;2061743;28;20031;-67
2021/05/01 00:06:24;;;;;;;7.13;5.87;;;;;;;19.48;53.55;99173.09;2062268;28;20102;-67
2021/05/01 00:07:24;;;;;;;8.53;6.43;;;;;;;19.49;53.54;99171.22;2060739;28;20022;-66
2021/05/01 00:08:28;;;;;;;7.30;5.57;;;;;;;19.48;53.68;99175.00;2062231;28;20157;-66
2021/05/01 00:09:29;;;;;;;7.57;5.70;;;;;;;19.48;53.60;99177.72;2061937;28;20078;-66
2021/05/01 00:10:29;;;;;;;6.40;5.47;;;;;;;19.47;53.63;99171.38;2061702;28;20031;-66
2021/05/01 00:11:30;;;;;;;6.80;5.77;;;;;;;19.47;53.63;99165.06;2061854;28;20434;-66
2021/05/01 00:12:30;;;;;;;6.57;5.87;;;;;;;19.46;53.80;99166.94;2061817;28;20077;-67
2021/05/01 00:13:33;;;;;;;7.77;5.50;;;;;;;19.47;53.70;99165.06;2062538;28;20040;-66
2021/05/01 00:14:36;;;;;;;8.05;5.75;;;;;;;19.46;53.66;99160.63;2063451;28;20029;-66
2021/05/01 00:15:37;;;;;;;7.15;5.05;;;;;;;19.47;53.68;99162.34;2063366;28;20026;-66
2021/05/01 00:16:37;;;;;;;7.90;6.27;;;;;;;19.47;53.74;99167.81;2063421;28;20030;-66
2021/05/01 00:17:38;;;;;;;10.13;6.70;;;;;;;19.47;53.70;99170.53;2061129;28;20027;-67
2021/05/01 00:18:38;;;;;;;6.87;5.33;;;;;;;19.46;53.64;99166.09;2062598;28;20026;-66
2021/05/01 00:19:39;;;;;;;8.60;5.70;;;;;;;19.46;53.67;99171.56;2063200;28;20020;-66
2021/05/01 00:20:39;;;;;;;8.47;6.30;;;;;;;19.45;53.68;99167.13;2058648;28;20446;-66
2021/05/01 00:21:40;;;;;;;6.63;5.70;;;;;;;19.46;53.58;99169.69;2061416;28;20080;-66
2021/05/01 00:22:40;;;;;;;6.30;5.00;;;;;;;19.46;53.80;99164.22;2062994;28;20589;-66
2021/05/01 00:23:41;;;;;;;7.23;5.27;;;;;;;19.46;53.66;99171.56;2063449;28;20030;-67
2021/05/01 00:24:41;;;;;;;6.67;5.20;;;;;;;19.46;53.66;99172.41;2063247;28;20528;-66
2021/05/01 00:25:42;;;;;;;7.27;5.83;;;;;;;19.46;53.74;99166.94;2061721;28;20108;-66
2021/05/01 00:26:42;;;;;;;6.83;5.73;;;;;;;19.45;53.78;99164.38;2060741;28;20075;-66
2021/05/01 00:27:43;;;;;;;7.70;6.03;;;;;;;19.44;53.68;99166.28;2059655;28;20713;-66
2021/05/01 00:28:43;;;;;;;9.67;6.07;;;;;;;19.44;53.75;99159.97;2063316;28;20030;-66
2021/05/01 00:29:44;;;;;;;7.17;5.50;;;;;;;19.44;53.75;99159.97;2060647;28;20030;-66
2021/05/01 00:30:44;;;;;;;7.77;5.50;;;;;;;19.44;53.72;99157.22;2062656;28;20543;-66
2021/05/01 00:31:44;;;;;;;8.10;5.47;;;;;;;19.44;53.71;99159.97;2063229;28;20018;-65
2021/05/01 00:32:45;;;;;;;7.83;6.00;;;;;;;19.43;53.77;99147.34;2060514;28;20054;-66
2021/05/01 00:33:45;;;;;;;6.90;5.30;;;;;;;19.43;53.73;99144.59;2063069;28;20061;-66
2021/05/01 00:34:46;;;;;;;8.57;5.80;;;;;;;19.43;53.73;99148.19;2063494;28;20037;-67
2021/05/01 00:35:46;;;;;;;6.60;5.37;;;;;;;19.45;53.74;99157.06;2063463;28;20033;-66
2021/05/01 00:36:47;;;;;;;6.90;5.43;;;;;;;19.43;53.68;99150.91;2062961;28;20046;-66
2021/05/01 00:37:47;;;;;;;6.40;5.30;;;;;;;19.43;53.72;99152.78;2061710;28;20122;-66
2021/05/01 00:38:48;;;;;;;7.30;5.83;;;;;;;19.43;53.78;99152.78;2060542;28;20026;-66
2021/05/01 00:39:48;;;;;;;7.57;6.03;;;;;;;19.42;53.74;99134.69;2058867;28;20487;-66
2021/05/01 00:40:49;;;;;;;6.17;5.33;;;;;;;19.43;53.73;99144.59;2062384;28;20070;-66
2021/05/01 00:41:49;;;;;;;6.47;5.40;;;;;;;19.42;53.78;99145.59;2062779;28;20026;-66
2021/05/01 00:42:50;;;;;;;6.63;5.33;;;;;;;19.41;53.83;99143.91;2062739;28;20536;-66
2021/05/01 00:43:51;;;;;;;6.25;5.13;;;;;;;19.41;53.80;99154.84;2057776;28;20042;-66
2021/05/01 00:44:51;;;;;;;9.10;6.40;;;;;;;19.42;53.65;99153.81;2059039;28;20117;-66
2021/05/01 00:45:52;;;;;;;7.53;5.83;;;;;;;19.42;53.86;99157.38;2062529;28;20026;-66
2021/05/01 00:46:53;;;;;;;8.30;5.27;;;;;;;19.42;53.90;99156.53;2061550;28;20022;-66
2021/05/01 00:47:53;;;;;;;7.43;5.03;;;;;;;19.41;53.86;99154.84;2063215;28;20042;-66
2021/05/01 00:48:54;;;;;;;7.30;5.30;;;;;;;19.41;53.82;99152.13;2060875;28;20681;-66
2021/05/01 00:49:54;;;;;;;7.40;5.23;;;;;;;19.41;53.78;99152.13;2063629;28;20041;-66
2021/05/01 00:50:55;;;;;;;7.20;5.40;;;;;;;19.40;53.85;99150.38;2060183;28;20050;-66
2021/05/01 00:51:55;;;;;;;6.10;4.73;;;;;;;19.40;53.87;99151.28;2062910;28;20038;-66
2021/05/01 00:52:56;;;;;;;9.00;5.67;;;;;;;19.40;53.86;99147.66;2062391;28;20841;-66
2021/05/01 00:53:56;;;;;;;8.73;5.43;;;;;;;19.40;53.88;99148.53;2062587;28;20027;-66
2021/05/01 00:54:57;;;;;;;7.67;5.40;;;;;;;19.40;53.87;99139.47;2063576;28;20371;-66
2021/05/01 00:55:58;;;;;;;7.07;5.40;;;;;;;19.40;53.86;99144.94;2060783;28;20069;-66
2021/05/01 00:56:59;;;;;;;6.30;5.27;;;;;;;19.38;54.01;99128.72;2062363;28;20825;-66
2021/05/01 00:58:00;;;;;;;7.82;5.88;;;;;;;19.38;53.82;99134.19;2058271;28;20034;-66
2021/05/01 00:59:00;;;;;;;8.37;5.33;;;;;;;19.39;53.90;99129.56;2059227;28;20081;-66
2021/05/01 01:00:01;;;;;;;6.73;5.00;;;;;;;19.39;53.90;99124.09;2063561;28;20121;-66
2021/05/01 01:02:09;;;;;;;6.80;5.35;;;;;;;19.38;53.91;99130.63;2056202;28;20039;-66
2021/05/01 01:03:09;;;;;;;6.63;5.63;;;;;;;19.39;53.95;99135.03;2058733;28;20769;-67
2021/05/01 01:04:10;;;;;;;5.87;4.80;;;;;;;19.38;53.91;99133.34;2062518;28;20022;-66
2021/05/01 01:05:10;;;;;;;6.50;5.27;;;;;;;19.38;53.94;99130.63;2061075;28;20030;-66
2021/05/01 01:06:13;;;;;;;6.77;4.90;;;;;;;19.39;53.96;99130.41;2056702;28;20710;-66
2021/05/01 01:07:14;;;;;;;7.30;5.57;;;;;;;19.37;53.86;99126.16;2056815;28;20035;-66
2021/05/01 01:08:14;;;;;;;7.73;5.53;;;;;;;19.37;53.97;99123.41;2063024;28;20057;-66
2021/05/01 01:09:15;;;;;;;7.10;5.13;;;;;;;19.38;53.92;99130.63;2062876;28;20033;-66
2021/05/01 01:10:15;;;;;;;8.03;5.20;;;;;;;19.37;53.81;99123.41;2062079;28;20088;-66
2021/05/01 01:11:16;;;;;;;7.37;5.67;;;;;;;19.37;53.98;99131.63;2059443;28;20041;-66
2021/05/01 01:12:17;;;;;;;8.93;5.67;;;;;;;19.36;54.03;99135.41;2063117;28;20200;-66
2021/05/01 01:13:18;;;;;;;6.70;4.75;;;;;;;19.37;53.99;99128.88;2062295;28;20113;-66
2021/05/01 01:14:18;;;;;;;6.87;5.60;;;;;;;19.36;53.97;99130.78;2062391;28;20061;-66
2021/05/01 01:15:23;;;;;;;7.30;5.40;;;;;;;19.36;53.90;99130.78;2051420;28;20026;-66
2021/05/01 01:16:24;;;;;;;6.00;4.85;;;;;;;19.35;53.97;99128.22;2059350;28;20117;-66
2021/05/01 01:17:25;;;;;;;7.13;5.03;;;;;;;19.36;53.88;99127.19;2062007;28;20834;-66
2021/05/01 01:18:25;;;;;;;6.17;5.03;;;;;;;19.36;53.93;99132.66;2062670;28;20034;-66
2021/05/01 01:19:26;;;;;;;7.50;5.07;;;;;;;19.35;53.99;99131.78;2063070;28;20058;-66
2021/05/01 01:20:27;;;;;;;6.60;4.77;;;;;;;19.36;53.87;99127.19;2062959;28;20109;-66
2021/05/01 01:21:27;;;;;;;6.45;5.30;;;;;;;19.35;54.09;99122.75;2053073;28;20033;-66
2021/05/01 01:22:28;;;;;;;5.87;4.73;;;;;;;19.35;54.00;99125.47;2058436;28;20537;-66
2021/05/01 01:23:28;;;;;;;6.50;4.87;;;;;;;19.35;54.00;99122.75;2060993;28;20069;-66
2021/05/01 01:24:30;;;;;;;6.83;5.40;;;;;;;19.34;54.10;99121.88;2060735;28;20031;-66
2021/05/01 01:25:31;;;;;;;6.50;5.50;;;;;;;19.34;54.15;99126.50;2062555;28;20596;-66
2021/05/01 01:26:35;;;;;;;7.73;5.33;;;;;;;19.34;54.05;99127.34;2062247;28;20393;-66
2021/05/01 01:27:38;;;;;;;6.53;5.28;;;;;;;19.34;54.01;99130.09;2058454;28;20041;-66
2021/05/01 01:28:39;;;;;;;5.80;5.03;;;;;;;19.35;53.96;99136.41;2060999;28;20030;-66
2021/05/01 01:29:42;;;;;;;6.80;5.07;;;;;;;19.34;54.06;99137.44;2061408;28;20097;-67
2021/05/01 01:30:42;;;;;;;6.75;5.07;;;;;;;19.35;53.85;99133.66;2059472;28;20049;-66
2021/05/01 01:31:43;;;;;;;7.83;5.40;;;;;;;19.34;54.01;99127.34;2059859;28;20105;-66
2021/05/01 01:32:45;;;;;;;7.25;4.80;;;;;;;19.33;54.02;99125.66;2062857;28;20117;-66
2021/05/01 01:33:45;;;;;;;6.30;4.85;;;;;;;19.33;54.09;99124.78;2059168;28;20030;-66
2021/05/01 01:34:46;;;;;;;6.43;5.07;;;;;;;19.32;54.05;99120.38;2062419;28;20097;-66
2021/05/01 01:35:46;;;;;;;6.87;5.03;;;;;;;19.32;53.95;99128.56;2060502;28;20023;-66
2021/05/01 01:36:47;;;;;;;6.23;5.23;;;;;;;19.32;54.10;99134.88;2063163;28;20089;-66
2021/05/01 01:37:48;;;;;;;6.90;5.33;;;;;;;19.32;54.08;99121.22;2061617;28;20441;-66
2021/05/01 01:38:49;;;;;;;6.85;4.82;;;;;;;19.32;54.12;99117.63;2057865;28;20034;-66
2021/05/01 01:39:49;;;;;;;5.73;5.10;;;;;;;19.31;54.09;99121.41;2061758;28;20034;-66
2021/05/01 01:40:50;;;;;;;6.27;4.90;;;;;;;19.31;54.09;99122.25;2061287;28;20026;-66
2021/05/01 01:41:50;;;;;;;7.37;5.93;;;;;;;19.31;54.06;99126.88;2062054;28;20022;-66
2021/05/01 01:42:52;;;;;;;6.83;4.93;;;;;;;19.30;54.17;99120.53;2056341;28;20030;-66
2021/05/01 01:43:53;;;;;;;6.95;4.63;;;;;;;19.32;54.07;99117.63;2058908;28;20397;-66
2021/05/01 01:44:53;;;;;;;5.47;4.93;;;;;;;19.30;54.04;99119.69;2061584;28;20030;-66
2021/05/01 01:45:54;;;;;;;5.87;4.70;;;;;;;19.31;54.06;99132.34;2063250;28;20019;-66
2021/05/01 01:46:54;;;;;;;6.30;5.40;;;;;;;19.30;54.13;99119.69;2060759;28;20111;-66
2021/05/01 01:47:56;;;;;;;5.63;4.50;;;;;;;19.31;54.17;99135.06;2058190;28;20033;-66
2021/05/01 01:48:57;;;;;;;6.38;4.78;;;;;;;19.30;54.13;99133.34;2058606;28;20034;-66
2021/05/01 01:49:57;;;;;;;8.33;5.63;;;;;;;19.31;54.18;99132.34;2059244;28;20114;-66
2021/05/01 01:50:58;;;;;;;6.83;5.10;;;;;;;19.30;54.12;99130.63;2061488;28;20109;-65
2021/05/01 01:51:58;;;;;;;5.23;4.47;;;;;;;19.28;54.19;99123.44;2054933;28;20513;-66
2021/05/01 01:52:59;;;;;;;5.80;4.90;;;;;;;19.30;54.18;99122.41;2056313;28;20266;-66
2021/05/01 01:53:59;;;;;;;6.30;5.07;;;;;;;19.28;54.32;99128.06;2053605;28;20081;-66
2021/05/01 01:55:00;;;;;;;7.73;5.17;;;;;;;19.30;54.13;99138.81;2055928;28;20540;-66
2021/05/01 01:56:00;;;;;;;5.73;4.73;;;;;;;19.30;54.08;99130.63;2063072;28;20164;-66
2021/05/01 01:57:01;;;;;;;5.40;4.70;;;;;;;19.28;54.16;99122.59;2062686;28;20096;-66
2021/05/01 01:58:03;;;;;;;5.87;5.03;;;;;;;19.30;54.20;99131.44;2060132;28;20030;-66
2021/05/01 01:59:04;;;;;;;6.15;4.75;;;;;;;19.28;54.16;99123.44;2056661;28;20039;-66
2021/05/01 02:00:08;;;;;;;7.30;5.40;;;;;;;19.27;54.14;99127.19;2061601;28;20501;-66
2021/05/01 02:01:10;;;;;;;7.20;4.82;;;;;;;19.26;54.24;99124.66;2061828;28;20026;-66
2021/05/01 02:02:11;;;;;;;10.13;5.13;;;;;;;19.27;54.16;99126.34;2063019;28;20030;-66
2021/05/01 02:03:14;;;;;;;6.28;4.85;;;;;;;19.26;54.15;99125.50;2061702;28;20466;-66
2021/05/01 02:04:14;;;;;;;5.18;4.50;;;;;;;19.27;54.32;99113.53;2062963;28;20069;-66
2021/05/01 02:05:16;;;;;;;7.03;5.07;;;;;;;19.27;54.20;99116.25;2062746;28;20041;-66
2021/05/01 02:06:17;;;;;;;;;;;;;;;19.21;54.34;99122.44;2062664;28;20022;-66
2021/05/01 02:07:17;;;;;;;7.70;5.10;;;;;;;19.23;54.40;99130.44;2065812;28;19944;-66
2021/05/01 02:08:18;;;;;;;5.43;4.73;;;;;;;19.24;54.38;99133.00;2067569;28;20500;-66
2021/05/01 02:09:18;;;;;;;6.67;4.87;;;;;;;19.25;54.27;99128.41;2060319;28;20059;-66
2021/05/01 02:10:19;;;;;;;5.30;4.47;;;;;;;19.24;54.37;99127.56;2062112;28;20038;-66
2021/05/01 02:11:19;;;;;;;6.27;4.90;;;;;;;19.24;54.29;99127.56;2061909;28;20071;-66
2021/05/01 02:12:19;;;;;;;5.70;4.93;;;;;;;19.24;54.31;99135.75;2062217;28;20054;-66
2021/05/01 02:13:20;;;;;;;5.67;4.50;;;;;;;19.23;54.26;99128.59;2058148;28;20085;-66
2021/05/01 02:14:20;;;;;;;6.77;4.53;;;;;;;19.24;54.22;99135.75;2056911;28;20158;-66
2021/05/01 02:15:23;;;;;;;4.97;4.47;;;;;;;19.24;54.26;99132.16;2060260;28;20448;-66
2021/05/01 02:16:23;;;;;;;6.10;4.60;;;;;;;19.24;54.31;99130.28;2059247;28;20161;-66
2021/05/01 02:17:24;;;;;;;7.40;5.10;;;;;;;19.23;54.33;99131.31;2057713;28;20556;-66
2021/05/01 02:18:24;;;;;;;6.53;4.77;;;;;;;19.23;54.19;99125.84;2061375;28;20046;-67
2021/05/01 02:19:25;;;;;;;6.00;4.90;;;;;;;19.24;54.19;99127.56;2061348;28;20030;-66
2021/05/01 02:20:29;;;;;;;6.47;5.00;;;;;;;19.23;54.24;99128.59;2061389;28;20081;-66
2021/05/01 02:21:30;;;;;;;6.20;4.90;;;;;;;19.24;54.25;99133.00;2063774;28;20033;-66
2021/05/01 02:22:30;;;;;;;5.67;4.87;;;;;;;19.23;54.20;99134.06;2063700;28;20025;-66
2021/05/01 02:23:31;;;;;;;5.33;4.80;;;;;;;19.22;54.11;99129.59;2060803;28;20058;-66
2021/05/01 02:24:32;;;;;;;5.43;4.20;;;;;;;19.22;54.27;99140.53;2062801;28;20038;-66
2021/05/01 02:25:33;;;;;;;6.60;4.50;;;;;;;19.23;54.32;99135.91;2057144;28;20035;-67
2021/05/01 02:26:34;;;;;;;5.75;4.38;;;;;;;19.23;54.28;99135.91;2061567;28;20022;-66
2021/05/01 02:27:34;;;;;;;5.33;4.27;;;;;;;19.24;54.21;99127.56;2061669;28;20061;-66
2021/05/01 02:28:35;;;;;;;6.00;4.70;;;;;;;19.23;54.20;99136.78;2058550;28;20034;-66
2021/05/01 02:29:35;;;;;;;6.10;5.17;;;;;;;19.22;54.28;99123.28;2057531;28;20030;-66
2021/05/01 02:30:36;;;;;;;6.17;4.87;;;;;;;19.23;54.29;99124.97;2059900;28;20031;-67
2021/05/01 02:31:36;;;;;;;5.77;4.40;;;;;;;19.22;54.25;99128.75;2056435;28;20056;-66
2021/05/01 02:32:37;;;;;;;5.57;4.73;;;;;;;19.21;54.29;99127.91;2056209;28;20379;-66
2021/05/01 02:33:38;;;;;;;5.70;4.37;;;;;;;19.21;54.37;99141.56;2060754;28;20184;-66
2021/05/01 02:34:38;;;;;;;5.83;4.47;;;;;;;19.22;54.24;99136.94;2058809;28;20026;-66
2021/05/01 02:35:40;;;;;;;6.20;4.93;;;;;;;19.22;54.32;99134.22;2061310;28;20265;-66
2021/05/01 02:36:41;;;;;;;5.88;4.18;;;;;;;19.22;54.20;99135.06;2062140;28;20118;-66
2021/05/01 02:37:42;;;;;;;6.40;4.70;;;;;;;19.21;54.18;99127.91;2062088;28;20034;-66
2021/05/01 02:38:43;;;;;;;8.13;4.32;;;;;;;19.21;54.29;99127.91;2060930;28;20053;-66
2021/05/01 02:39:43;;;;;;;5.80;4.53;;;;;;;19.21;54.38;99133.38;2062574;28;20050;-66
2021/05/01 02:40:44;;;;;;;5.20;4.47;;;;;;;19.21;54.36;99127.91;2060747;28;20516;-66
2021/05/01 02:41:44;;;;;;;5.63;4.80;;;;;;;19.21;54.54;99127.91;2062480;28;20056;-66
2021/05/01 02:42:45;;;;;;;5.80;4.30;;;;;;;19.21;54.31;99127.91;2060115;28;20030;-66
2021/05/01 02:43:46;;;;;;;7.07;4.53;;;;;;;19.21;54.25;99127.91;2061918;28;20034;-66
2021/05/01 02:44:46;;;;;;;8.23;4.77;;;;;;;19.21;54.30;99127.06;2062319;28;20030;-66
2021/05/01 02:45:47;;;;;;;5.90;4.70;;;;;;;19.20;54.38;99122.59;2061193;28;20065;-66
2021/05/01 02:46:47;;;;;;;6.43;4.30;;;;;;;19.20;54.33;99126.19;2062451;28;20121;-66
2021/05/01 02:47:49;;;;;;;5.63;4.53;;;;;;;19.20;54.42;99125.34;2060028;28;21596;-66
2021/05/01 02:48:49;;;;;;;6.30;4.72;;;;;;;19.20;54.35;99125.34;2057145;28;20045;-67
2021/05/01 02:49:50;;;;;;;5.83;4.50;;;;;;;19.20;54.44;99119.88;2061065;28;20049;-66
2021/05/01 02:50:50;;;;;;;5.83;4.73;;;;;;;19.20;54.30;99120.72;2061168;28;20080;-66
2021/05/01 02:51:51;;;;;;;7.03;5.33;;;;;;;19.20;54.30;99120.72;2062269;28;20034;-66
2021/05/01 02:52:51;;;;;;;8.20;4.30;;;;;;;19.20;54.36;99123.44;2055666;28;20030;-66
2021/05/01 02:53:52;;;;;;;6.37;4.23;;;;;;;19.19;54.40;99108.09;2062805;28;20051;-66
2021/05/01 02:54:52;;;;;;;7.73;4.30;;;;;;;19.19;54.29;99104.53;2061461;28;20057;-66
2021/05/01 02:55:53;;;;;;;5.80;4.10;;;;;;;19.19;54.30;99094.44;2056110;28;20775;-66
2021/05/01 02:56:53;;;;;;;6.90;4.43;;;;;;;19.18;54.38;99103.69;2062246;28;20090;-66
2021/05/01 02:57:55;;;;;;;5.93;4.00;;;;;;;19.18;54.32;99095.47;2060416;28;20078;-66
2021/05/01 02:58:55;;;;;;;5.05;4.00;;;;;;;19.20;54.61;99098.00;2061065;28;20049;-66
2021/05/01 03:00:01;;;;;;;6.63;4.20;;;;;;;19.19;54.29;99096.31;2061327;28;20041;-67
2021/05/01 03:01:02;;;;;;;6.38;4.25;;;;;;;19.17;54.21;99091.03;2060946;28;20033;-66
2021/05/01 03:02:02;;;;;;;5.67;4.10;;;;;;;19.17;54.41;99107.41;2062086;28;20038;-66
2021/05/01 03:03:03;;;;;;;4.93;3.80;;;;;;;19.17;54.44;99099.22;2060965;28;20400;-66
2021/05/01 03:04:04;;;;;;;7.17;4.67;;;;;;;19.17;54.46;99093.75;2062564;28;20061;-66
2021/05/01 03:05:05;;;;;;;5.32;4.40;;;;;;;19.18;54.46;99100.06;2057640;28;20034;-67
2021/05/01 03:06:06;;;;;;;5.90;4.35;;;;;;;19.17;54.42;99092.91;2056532;28;20030;-66
2021/05/01 03:07:06;;;;;;;6.13;4.40;;;;;;;19.17;54.39;99088.28;2062103;28;20077;-66
2021/05/01 03:08:07;;;;;;;5.40;4.33;;;;;;;19.17;54.46;99092.91;2056628;28;20019;-66
2021/05/01 03:09:07;;;;;;;5.57;4.60;;;;;;;19.17;54.38;99088.28;2054836;28;20516;-66
2021/05/01 03:10:11;;;;;;;5.63;4.07;;;;;;;19.16;54.49;99083.88;2061691;28;20092;-66
2021/05/01 03:11:11;;;;;;;10.38;4.60;;;;;;;19.18;54.40;99086.41;2061354;28;20030;-67
2021/05/01 03:12:12;;;;;;;7.10;4.53;;;;;;;19.17;54.41;99085.56;2062345;28;20030;-66
2021/05/01 03:13:12;;;;;;;14.50;4.67;;;;;;;19.17;54.50;99088.28;2061577;28;20033;-66
2021/05/01 03:14:13;;;;;;;4.73;4.13;;;;;;;19.18;54.49;99083.69;2062197;28;20114;-66
2021/05/01 03:15:15;;;;;;;4.50;3.63;;;;;;;19.15;54.43;99079.41;2061112;28;20034;-67
2021/05/01 03:16:16;;;;;;;5.35;4.00;;;;;;;19.15;54.39;99079.41;2058409;28;20069;-66
2021/05/01 03:17:16;;;;;;;5.67;4.00;;;;;;;19.15;54.37;99073.94;2054784;28;20030;-66
2021/05/01 03:18:17;;;;;;;7.07;4.20;;;;;;;19.16;54.59;99081.13;2061394;28;20045;-66
2021/05/01 03:19:17;;;;;;;4.77;4.03;;;;;;;19.14;54.43;99077.72;2062270;28;20398;-66
2021/05/01 03:20:18;;;;;;;5.00;3.93;;;;;;;19.15;54.43;99084.88;2062553;28;20058;-66
2021/05/01 03:21:18;;;;;;;4.23;3.70;;;;;;;19.14;54.50;99082.34;2055121;28;20010;-66
2021/05/01 03:22:19;;;;;;;4.97;3.93;;;;;;;19.14;54.58;99077.72;2052679;28;20033;-66
2021/05/01 03:23:20;;;;;;;4.80;4.10;;;;;;;19.14;54.58;99080.47;2058403;28;20029;-66
2021/05/01 03:24:21;;;;;;;5.03;4.28;;;;;;;19.14;54.38;99080.47;2058102;28;20057;-66
2021/05/01 03:25:21;;;;;;;6.30;4.40;;;;;;;19.13;54.42;99070.53;2062018;28;20815;-66
2021/05/01 03:26:22;;;;;;;6.50;4.27;;;;;;;19.14;54.59;99069.53;2060802;28;20026;-66
2021/05/01 03:27:23;;;;;;;5.63;4.20;;;;;;;19.13;54.58;99076.00;2061445;28;20116;-66
2021/05/01 03:28:23;;;;;;;5.10;4.07;;;;;;;19.12;54.59;99063.38;2060129;28;20512;-66
2021/05/01 03:29:24;;;;;;;6.43;4.30;;;;;;;19.12;54.59;99066.13;2061673;28;20026;-66
2021/05/01 03:30:24;;;;;;;5.87;4.23;;;;;;;19.13;54.61;99059.63;2060497;28;20033;-66
2021/05/01 03:31:25;;;;;;;6.60;3.93;;;;;;;19.13;54.49;99061.50;2058109;28;20034;-66
2021/05/01 03:32:25;;;;;;;5.73;3.93;;;;;;;19.12;54.55;99057.91;2062237;28;20022;-66
2021/05/01 03:33:28;;;;;;;4.97;4.10;;;;;;;19.13;54.63;99058.75;2058416;28;20038;-66
2021/05/01 03:34:28;;;;;;;5.97;4.05;;;;;;;19.12;54.53;99052.47;2061267;28;20018;-66
2021/05/01 03:35:29;;;;;;;5.60;4.10;;;;;;;19.12;54.62;99051.63;2060333;28;20031;-66
2021/05/01 03:36:29;;;;;;;4.87;4.10;;;;;;;19.12;54.62;99048.88;2060600;28;20033;-66
2021/05/01 03:37:29;;;;;;;5.83;4.63;;;;;;;19.11;54.65;99044.44;2062334;28;20027;-66
2021/05/01 03:38:30;;;;;;;4.43;3.53;;;;;;;19.10;54.56;99043.59;2060131;28;20142;-67
2021/05/01 03:39:31;;;;;;;4.78;3.60;;;;;;;19.11;54.68;99045.31;2061433;28;20026;-66
2021/05/01 03:40:31;;;;;;;6.23;4.10;;;;;;;19.11;54.64;99045.31;2059509;28;20038;-66
2021/05/01 03:41:32;;;;;;;4.87;4.13;;;;;;;19.11;54.60;99047.16;2062136;28;20026;-66
2021/05/01 03:42:33;;;;;;;6.90;4.00;;;;;;;19.11;54.31;99045.31;2062278;28;20102;-66
2021/05/01 03:43:33;;;;;;;4.50;3.80;;;;;;;19.11;54.33;99048.03;2061280;28;20037;-66
2021/05/01 03:44:34;;;;;;;7.87;4.37;;;;;;;19.11;54.47;99053.50;2061184;28;20269;-66
2021/05/01 03:45:35;;;;;;;4.90;4.00;;;;;;;19.11;54.60;99045.31;2058685;28;20037;-67
2021/05/01 03:46:35;;;;;;;5.67;4.63;;;;;;;19.11;54.58;99048.03;2061839;28;20056;-66
2021/05/01 03:47:36;;;;;;;6.93;4.13;;;;;;;19.11;54.66;99050.75;2061624;28;20018;-67
2021/05/01 03:48:37;;;;;;;6.60;4.47;;;;;;;19.12;54.60;99043.41;2057626;28;20030;-66
2021/05/01 03:49:37;;;;;;;4.93;3.60;;;;;;;19.12;54.63;99040.69;2057967;28;20072;-66
2021/05/01 03:50:38;;;;;;;4.97;3.60;;;;;;;19.09;54.56;99041.88;2060235;28;20029;-66
2021/05/01 03:51:39;;;;;;;6.43;4.20;;;;;;;19.11;54.62;99038.97;2060965;28;20089;-67
2021/05/01 03:52:39;;;;;;;4.80;4.17;;;;;;;19.08;54.61;99045.63;2058263;28;20018;-66
2021/05/01 03:53:39;;;;;;;6.83;4.60;;;;;;;19.09;54.72;99051.97;2062767;28;20515;-66
2021/05/01 03:54:40;;;;;;;4.43;3.47;;;;;;;19.08;54.63;99051.09;2064195;28;20026;-67
2021/05/01 03:55:41;;;;;;;4.23;3.43;;;;;;;19.09;54.72;99052.81;2061253;28;20027;-66
2021/05/01 03:56:41;;;;;;;5.97;4.03;;;;;;;19.09;54.73;99058.28;2058700;28;20031;-66
2021/05/01 03:57:41;;;;;;;4.90;3.90;;;;;;;19.09;54.70;99052.81;2063236;28;20049;-66
2021/05/01 03:58:42;;;;;;;5.17;4.03;;;;;;;19.09;54.70;99055.53;2059983;28;20577;-67
2021/05/01 03:59:43;;;;;;;5.67;4.33;;;;;;;19.08;54.54;99056.56;2063391;28;20034;-66
2021/05/01 04:00:43;;;;;;;5.97;3.77;;;;;;;19.08;54.52;99051.09;2060243;28;20049;-66
2021/05/01 04:01:44;;;;;;;5.67;3.77;;;;;;;19.09;54.46;99058.28;2056847;28;20781;-66
2021/05/01 04:02:44;;;;;;;6.70;4.10;;;;;;;19.08;54.64;99053.81;2057847;28;20124;-66
2021/05/01 04:03:45;;;;;;;4.23;3.40;;;;;;;19.08;54.65;99051.09;2062952;28;20122;-66
2021/05/01 04:04:45;;;;;;;6.93;4.20;;;;;;;19.08;54.56;99050.25;2060517;28;20022;-66
2021/05/01 04:05:46;;;;;;;5.80;3.90;;;;;;;19.08;54.66;99059.28;2062919;28;20034;-66
2021/05/01 04:06:46;;;;;;;5.07;3.87;;;;;;;19.07;54.73;99054.88;2063323;28;20137;-66
2021/05/01 04:07:47;;;;;;;5.60;4.17;;;;;;;19.08;54.59;99059.28;2061432;28;20575;-66
2021/05/01 04:08:48;;;;;;;4.93;4.00;;;;;;;19.08;54.70;99062.03;2062828;28;20041;-67
2021/05/01 04:09:48;;;;;;;5.10;3.50;;;;;;;19.08;54.58;99062.03;2063416;28;20117;-67
2021/05/01 04:10:49;;;;;;;5.33;3.80;;;;;;;19.08;54.56;99062.03;2070137;28;20029;-66
2021/05/01 04:11:49;;;;;;;6.03;4.07;;;;;;;19.08;54.57;99064.75;2060597;28;20080;-66
2021/05/01 04:12:50;;;;;;;4.70;4.10;;;;;;;19.08;54.59;99072.94;2063405;28;20121;-66
2021/05/01 04:13:50;;;;;;;7.00;3.50;;;;;;;19.07;54.63;99071.25;2063963;28;20030;-66
2021/05/01 04:14:51;;;;;;;5.90;3.67;;;;;;;19.06;54.67;99075.88;2061593;28;20018;-66
2021/05/01 04:15:51;;;;;;;4.63;3.77;;;;;;;19.09;54.67;99076.56;2062206;28;20030;-67
2021/05/01 04:16:52;;;;;;;6.00;4.20;;;;;;;19.07;54.75;99071.25;2061519;28;20502;-66
2021/05/01 04:17:53;;;;;;;5.13;3.93;;;;;;;19.08;54.55;99078.41;2063012;28;20045;-66
2021/05/01 04:18:54;;;;;;;5.65;3.67;;;;;;;19.07;54.71;99071.25;2057891;28;20505;-66
2021/05/01 04:19:54;;;;;;;4.77;3.60;;;;;;;19.08;54.65;99072.09;2062272;28;20783;-66
2021/05/01 04:20:55;;;;;;;6.60;3.90;;;;;;;19.07;54.61;99071.25;2060545;28;20023;-67
2021/05/01 04:22:03;;;;;;;6.43;4.33;;;;;;;19.05;54.61;99076.03;2063726;28;20030;-66
2021/05/01 04:23:03;;;;;;;4.40;3.75;;;;;;;19.06;54.57;99080.50;2059637;28;20022;-65
2021/05/01 04:24:05;;;;;;;4.90;3.90;;;;;;;19.04;54.73;99072.47;2062671;28;20057;-66
2021/05/01 04:25:06;;;;;;;;;;;;;;;19.00;54.89;99081.16;2062945;28;20497;-67
2021/05/01 04:26:06;;;;;;;5.03;3.90;;;;;;;19.01;54.86;99082.84;2062430;28;20540;-67
2021/05/01 04:27:07;;;;;;;4.10;3.43;;;;;;;19.01;54.77;99077.41;2062497;28;20062;-66
2021/05/01 04:28:07;;;;;;;4.63;3.40;;;;;;;19.03;54.88;99086.28;2060764;28;20038;-66
2021/05/01 04:29:08;;;;;;;6.83;3.80;;;;;;;19.02;54.75;99070.94;2061645;28;20097;-66
2021/05/01 04:30:10;;;;;;;5.20;3.73;;;;;;;19.03;54.85;99075.34;2063527;28;20033;-66
2021/05/01 04:31:10;;;;;;;5.10;3.75;;;;;;;19.02;54.74;99076.38;2061215;28;20030;-67
2021/05/01 04:32:10;;;;;;;4.70;3.93;;;;;;;19.02;54.75;99076.38;2062697;28;20099;-66
2021/05/01 04:33:11;;;;;;;4.77;3.70;;;;;;;19.03;54.79;99081.69;2063552;28;20181;-66
2021/05/01 04:34:11;;;;;;;4.23;3.53;;;;;;;19.04;54.82;99079.81;2063080;28;20141;-66
2021/05/01 04:35:12;;;;;;;4.83;3.80;;;;;;;19.03;54.70;99089.00;2061265;28;20524;-66
2021/05/01 04:36:13;;;;;;;4.67;3.77;;;;;;;19.03;54.75;99089.00;2061623;28;20026;-66
2021/05/01 04:37:13;;;;;;;6.27;3.87;;;;;;;19.03;54.80;99097.19;2057406;28;20615;-66
2021/05/01 04:38:15;;;;;;;4.40;3.63;;;;;;;19.03;54.88;99089.00;2062947;28;20477;-66
2021/05/01 04:39:15;;;;;;;4.97;3.63;;;;;;;19.03;54.82;99078.09;2060333;28;20054;-66
2021/05/01 04:40:16;;;;;;;5.10;3.50;;;;;;;19.01;54.84;99071.94;2057085;28;20085;-66
2021/05/01 04:41:16;;;;;;;5.87;4.77;;;;;;;19.03;54.58;99086.28;2061785;28;20022;-66
2021/05/01 04:42:17;;;;;;;5.77;3.60;;;;;;;19.03;54.82;99086.28;2062752;28;20027;-67
2021/05/01 04:43:22;;;;;;;5.33;3.97;;;;;;;19.02;54.66;99079.13;2063655;28;20446;-66
2021/05/01 04:44:23;;;;;;;4.18;3.78;;;;;;;19.03;54.72;99086.28;2062692;28;20711;-66
2021/05/01 04:45:23;;;;;;;5.67;3.87;;;;;;;19.02;54.75;99090.03;2063636;28;20076;-66
2021/05/01 04:46:23;;;;;;;4.40;3.53;;;;;;;19.02;54.89;99090.03;2063300;28;20022;-66
2021/05/01 04:47:24;;;;;;;4.63;3.50;;;;;;;19.01;54.86;99093.78;2062820;28;20054;-66